Time;durP1;ratioP1;P1;durP2;ratioP2;P2;SDS_P1;SDS_P2;PMS_P1;PMS_P2;Temp;Humidity;BMP_temperature;BMP_pressure;BME280_temperature;BME280_humidity;BME280_pressure;Samples;Min_cycle;Max_cycle;Signal;HPM_P1;HPM_P2
2021/10/10 00:01:26;;;;;;;19.25;11.45;;;;;;;6.77;40.50;101058.27;1778208;80;21074;-40
2021/10/10 00:03:52;;;;;;;21.52;11.75;;;;;;;6.74;40.37;101060.98;1774559;80;21034;-40
2021/10/10 00:06:19;;;;;;;20.57;11.00;;;;;;;6.73;40.57;101064.77;1775297;80;21085;-41
2021/10/10 00:08:47;;;;;;;21.07;11.53;;;;;;;6.73;40.52;101062.07;1772837;80;21001;-41
2021/10/10 00:11:14;;;;;;;23.20;10.98;;;;;;;6.73;40.35;101055.91;1772007;80;21810;-40
2021/10/10 00:13:41;;;;;;;19.05;10.82;;;;;;;6.71;40.11;101051.34;1774505;80;21589;-41
2021/10/10 00:16:07;;;;;;;19.37;10.68;;;;;;;6.68;40.17;101052.71;1780571;79;20941;-41
2021/10/10 00:18:34;;;;;;;19.02;10.93;;;;;;;6.67;40.29;101053.02;1780979;80;21000;-41
2021/10/10 00:21:00;;;;;;;16.70;9.78;;;;;;;6.67;40.17;101055.72;1778986;80;21566;-40
2021/10/10 00:23:27;;;;;;;15.50;10.05;;;;;;;6.67;40.32;101054.37;1774611;80;21124;-41
2021/10/10 00:25:53;;;;;;;17.52;9.38;;;;;;;6.67;40.40;101051.68;1775237;80;20914;-40
2021/10/10 00:28:20;;;;;;;15.48;9.13;;;;;;;6.67;40.42;101058.41;1777676;80;20964;-41
2021/10/10 00:30:46;;;;;;;16.80;9.13;;;;;;;6.67;40.51;101058.41;1773543;80;21502;-42
2021/10/10 00:33:13;;;;;;;15.18;8.93;;;;;;;6.67;40.62;101056.52;1767736;79;21065;-41
2021/10/10 00:35:40;;;;;;;15.95;9.30;;;;;;;6.65;40.56;101051.96;1772329;80;21289;-43
2021/10/10 00:38:08;;;;;;;12.85;8.53;;;;;;;6.66;40.59;101052.77;1774870;80;20941;-40
2021/10/10 00:40:35;;;;;;;15.23;8.93;;;;;;;6.67;40.71;101051.68;1772698;80;20917;-41
2021/10/10 00:43:01;;;;;;;14.83;8.73;;;;;;;6.67;40.62;101057.87;1754796;81;21004;-41
2021/10/10 00:45:28;;;;;;;13.38;8.03;;;;;;;6.68;40.69;101050.59;1773305;80;20960;-41
2021/10/10 00:47:54;;;;;;;15.30;9.05;;;;;;;6.68;40.81;101043.85;1774669;80;21887;-40
2021/10/10 00:50:21;;;;;;;14.28;8.63;;;;;;;6.69;40.92;101044.89;1788144;79;21008;-40
2021/10/10 00:52:47;;;;;;;14.58;8.25;;;;;;;6.69;40.74;101044.89;1779902;80;20968;-40
2021/10/10 00:55:14;;;;;;;15.28;7.80;;;;;;;6.68;40.69;101047.32;1763416;79;21012;-41
2021/10/10 00:57:45;;;;;;;15.08;8.18;;;;;;;6.68;40.92;101049.24;1771048;80;21075;-41
2021/10/10 01:00:13;;;;;;;13.38;8.30;;;;;;;6.68;40.86;101045.20;1787639;79;21115;-41
2021/10/10 01:02:41;;;;;;;14.07;8.00;;;;;;;6.67;40.93;101049.78;1802859;79;20993;-40
2021/10/10 01:05:10;;;;;;;17.65;8.13;;;;;;;6.68;41.02;101046.55;1798828;79;21025;-41
2021/10/10 01:07:36;;;;;;;14.00;8.30;;;;;;;6.67;41.12;101045.74;1773414;79;20901;-40
2021/10/10 01:10:07;;;;;;;15.23;8.43;;;;;;;6.67;41.35;101044.94;1779453;79;21000;-41
2021/10/10 01:12:34;;;;;;;16.00;8.60;;;;;;;6.66;41.82;101045.48;1804859;79;21763;-41
2021/10/10 01:15:02;;;;;;;14.53;8.15;;;;;;;6.67;41.99;101048.98;1801017;79;20957;-40
2021/10/10 01:17:29;;;;;;;12.00;8.73;;;;;;;6.66;41.55;101046.83;1797162;79;20935;-41
2021/10/10 01:19:56;;;;;;;13.70;8.15;;;;;;;6.68;41.43;101043.28;1800397;79;20992;-41
2021/10/10 01:22:23;;;;;;;14.40;7.50;;;;;;;6.68;41.76;101045.97;1779894;79;21021;-41
2021/10/10 01:24:49;;;;;;;12.93;8.45;;;;;;;6.69;41.43;101048.13;1777642;80;21096;-40
2021/10/10 01:27:15;;;;;;;15.80;8.10;;;;;;;6.69;41.51;101048.13;1779303;79;21034;-41
2021/10/10 01:29:42;;;;;;;14.80;8.23;;;;;;;6.68;41.77;101044.63;1692322;82;21535;-40
2021/10/10 01:32:09;;;;;;;12.78;7.35;;;;;;;6.66;41.43;101045.48;1743145;82;20981;-41
2021/10/10 01:34:35;;;;;;;14.60;8.25;;;;;;;6.67;41.79;101047.09;1739664;81;21006;-41
2021/10/10 01:37:03;;;;;;;20.25;10.90;;;;;;;6.68;41.93;101046.55;1737700;82;21132;-41
2021/10/10 01:39:29;;;;;;;25.97;14.38;;;;;;;6.70;42.37;101052.43;1728586;81;20961;-42
2021/10/10 01:41:56;;;;;;;28.77;16.10;;;;;;;6.64;42.90;101045.50;1726854;83;21014;-42
2021/10/10 01:44:22;;;;;;;29.02;17.27;;;;;;;6.51;43.14;101040.31;1708721;83;21028;-41
2021/10/10 01:46:49;;;;;;;32.63;17.85;;;;;;;6.32;43.52;101038.16;1739093;81;21511;-41
2021/10/10 01:49:15;;;;;;;28.00;16.23;;;;;;;6.13;44.02;101040.83;1728851;81;21160;-40
2021/10/10 01:51:42;;;;;;;26.10;16.02;;;;;;;5.97;44.42;101039.40;1780861;79;20977;-40
2021/10/10 01:54:09;;;;;;;30.70;15.53;;;;;;;5.80;45.16;101045.77;1795116;79;21080;-40
2021/10/10 01:56:35;;;;;;;32.17;17.50;;;;;;;5.63;45.70;101038.94;1788016;79;20991;-41
2021/10/10 01:59:02;;;;;;;25.82;15.45;;;;;;;5.53;45.88;101040.39;1786382;79;21607;-40
2021/10/10 02:01:29;;;;;;;27.20;15.83;;;;;;;5.46;46.09;101044.52;1791989;79;21144;-40
2021/10/10 02:03:56;;;;;;;26.42;15.38;;;;;;;5.38;46.31;101047.80;1773565;79;20969;-40
2021/10/10 02:06:23;;;;;;;28.50;15.83;;;;;;;5.29;46.64;101040.89;1795918;79;21475;-41
2021/10/10 02:08:50;;;;;;;27.50;15.48;;;;;;;5.20;46.98;101045.28;1784959;79;21056;-40
2021/10/10 02:11:17;;;;;;;30.65;17.35;;;;;;;5.10;47.21;101037.30;1794459;79;21003;-40
2021/10/10 02:13:44;;;;;;;33.98;18.30;;;;;;;5.02;47.45;101041.41;1774024;79;21804;-40
2021/10/10 02:16:11;;;;;;;31.57;18.07;;;;;;;4.96;47.64;101044.41;1788685;78;21013;-40
2021/10/10 02:18:38;;;;;;;24.80;15.90;;;;;;;4.86;47.83;101044.48;1812952;77;21505;-41
2021/10/10 02:21:05;;;;;;;29.37;17.25;;;;;;;4.73;48.13;101041.90;1784392;79;21065;-40
2021/10/10 02:23:34;;;;;;;29.00;16.15;;;;;;;4.61;48.53;101039.55;1773463;79;21069;-41
2021/10/10 02:26:01;;;;;;;33.35;16.82;;;;;;;4.51;48.87;101040.95;1804328;79;21138;-41
2021/10/10 02:28:29;;;;;;;29.52;16.95;;;;;;;4.42;49.28;101031.88;1796584;79;21025;-40
2021/10/10 02:30:55;;;;;;;30.23;16.57;;;;;;;4.33;49.67;101031.66;1803232;79;20985;-41
2021/10/10 02:33:22;;;;;;;27.32;16.42;;;;;;;4.27;50.03;101030.08;1791490;78;20936;-40
2021/10/10 02:35:48;;;;;;;29.77;17.48;;;;;;;4.21;50.26;101030.41;1773530;79;21052;-40
2021/10/10 02:38:15;;;;;;;29.90;16.15;;;;;;;4.15;50.49;101029.62;1774894;79;21801;-40
2021/10/10 02:40:41;;;;;;;25.27;15.08;;;;;;;4.12;50.76;101029.34;1771655;79;21025;-41
2021/10/10 02:43:08;;;;;;;30.88;17.23;;;;;;;4.10;51.03;101034.20;1776318;79;21080;-40
2021/10/10 02:45:36;;;;;;;32.25;16.93;;;;;;;4.09;51.19;101032.05;1798321;79;21013;-40
2021/10/10 02:48:05;;;;;;;29.52;16.73;;;;;;;4.08;51.25;101034.47;1792988;79;21493;-40
2021/10/10 02:50:32;;;;;;;30.32;17.40;;;;;;;4.06;51.37;101033.16;1710323;82;21112;-41
2021/10/10 02:52:59;;;;;;;28.32;17.05;;;;;;;4.01;51.50;101038.54;1721827;81;21535;-40
2021/10/10 02:55:25;;;;;;;29.15;17.50;;;;;;;3.97;51.79;101040.17;1798767;79;21033;-40
2021/10/10 02:57:52;;;;;;;30.57;17.90;;;;;;;3.94;51.99;101042.31;1804618;79;21040;-40
2021/10/10 03:00:18;;;;;;;32.60;17.70;;;;;;;3.94;52.11;101045.53;1802748;79;21582;-41
2021/10/10 03:02:45;;;;;;;29.65;17.77;;;;;;;3.90;52.29;101043.94;1797611;79;21441;-40
2021/10/10 03:05:12;;;;;;;31.23;17.98;;;;;;;3.89;52.54;101045.02;1791658;79;20985;-41
2021/10/10 03:07:39;;;;;;;32.93;18.40;;;;;;;3.87;52.57;101039.10;1786251;79;21403;-40
2021/10/10 03:10:07;;;;;;;32.45;18.00;;;;;;;3.88;52.87;101035.35;1797091;79;21028;-40
2021/10/10 03:12:34;;;;;;;30.82;17.00;;;;;;;3.90;53.06;101035.09;1797410;79;21029;-40
2021/10/10 03:15:02;;;;;;;28.23;15.43;;;;;;;3.89;53.25;101034.81;1771321;80;21597;-41
2021/10/10 03:17:29;;;;;;;24.75;12.43;;;;;;;3.91;53.52;101033.48;1781047;80;20976;-40
2021/10/10 03:19:56;;;;;;;19.00;11.60;;;;;;;3.97;54.00;101023.50;1784460;79;20880;-40
2021/10/10 03:22:22;;;;;;;19.15;9.13;;;;;;;4.08;54.60;101025.61;1787521;79;21033;-40
2021/10/10 03:24:50;;;;;;;14.55;7.72;;;;;;;4.19;54.92;101023.95;1793610;79;21060;-40
2021/10/10 03:27:16;;;;;;;13.43;8.05;;;;;;;4.32;55.06;101023.34;1795424;79;21825;-42
2021/10/10 03:29:44;;;;;;;12.55;7.72;;;;;;;4.45;55.23;101027.31;1781097;80;21030;-41
2021/10/10 03:32:11;;;;;;;15.13;8.50;;;;;;;4.58;55.50;101026.69;1781090;80;21053;-41
2021/10/10 03:34:37;;;;;;;21.20;12.47;;;;;;;4.70;55.44;101024.44;1787490;79;21016;-41
2021/10/10 03:37:04;;;;;;;24.27;14.10;;;;;;;4.81;54.78;101025.17;1785427;79;20970;-41
2021/10/10 03:39:31;;;;;;;26.15;14.33;;;;;;;4.85;54.08;101024.87;1790696;79;21571;-41
2021/10/10 03:41:57;;;;;;;22.60;13.60;;;;;;;4.85;53.65;101020.84;1794922;79;21028;-40
2021/10/10 03:44:24;;;;;;;24.65;13.75;;;;;;;4.86;53.55;101020.30;1786967;79;21025;-41
2021/10/10 03:46:50;;;;;;;22.95;14.53;;;;;;;4.84;53.46;101019.80;1797297;79;21018;-41
2021/10/10 03:49:17;;;;;;;27.30;15.20;;;;;;;4.79;53.52;101020.06;1793703;79;21481;-40
2021/10/10 03:51:43;;;;;;;22.52;13.98;;;;;;;4.76;53.38;101016.61;1783129;79;21145;-41
2021/10/10 03:56:37;;;;;;;18.77;10.75;;;;;;;4.75;54.17;101015.00;1787414;79;21516;-40
2021/10/10 03:59:04;;;;;;;17.73;9.43;;;;;;;4.77;54.63;101012.84;1797365;79;21084;-41
2021/10/10 04:01:33;;;;;;;12.58;7.67;;;;;;;4.84;55.30;101011.73;1787448;79;21064;-41
2021/10/10 04:04:00;;;;;;;17.55;8.50;;;;;;;4.91;55.69;101010.86;1792663;79;21351;-40
2021/10/10 04:06:27;;;;;;;13.68;7.30;;;;;;;5.00;55.54;101014.00;1789261;79;21499;-41
2021/10/10 04:08:53;;;;;;;12.98;7.22;;;;;;;5.09;55.48;101013.65;1787378;79;20958;-41
2021/10/10 04:11:20;;;;;;;14.18;7.72;;;;;;;5.20;55.37;101013.02;1802384;79;21032;-42
2021/10/10 04:13:46;;;;;;;11.15;7.47;;;;;;;5.29;55.21;101014.00;1792694;79;21569;-40
2021/10/10 04:16:13;;;;;;;13.75;7.80;;;;;;;5.36;55.11;101010.99;1772890;81;21144;-40
2021/10/10 04:18:39;;;;;;;10.72;7.28;;;;;;;5.43;55.14;101001.48;1773423;79;21008;-40
2021/10/10 04:21:06;;;;;;;14.20;7.92;;;;;;;5.51;55.08;101000.08;1793469;79;21024;-40
2021/10/10 04:23:33;;;;;;;12.33;7.15;;;;;;;5.58;54.75;101001.33;1772975;81;20991;-41
2021/10/10 04:25:59;;;;;;;13.18;7.12;;;;;;;5.66;54.79;101004.73;1786165;79;21025;-40
2021/10/10 04:28:26;;;;;;;15.65;7.97;;;;;;;5.72;54.49;101003.33;1804914;79;21933;-40
2021/10/10 04:30:53;;;;;;;12.70;7.40;;;;;;;5.79;54.46;101006.48;1796562;78;21004;-40
2021/10/10 04:33:19;;;;;;;13.78;7.42;;;;;;;5.83;54.45;101006.16;1783057;79;20953;-40
2021/10/10 04:35:48;;;;;;;12.28;7.20;;;;;;;5.89;54.21;101010.44;1792291;79;21488;-40
2021/10/10 04:38:15;;;;;;;12.50;7.17;;;;;;;5.95;54.15;101007.95;1773693;79;21054;-40
2021/10/10 04:40:44;;;;;;;13.88;7.50;;;;;;;6.00;54.11;101002.50;1772831;81;21104;-41
2021/10/10 04:43:10;;;;;;;13.55;8.35;;;;;;;6.05;53.91;101006.47;1773601;79;20998;-41
2021/10/10 04:45:38;;;;;;;22.50;12.80;;;;;;;6.09;53.66;101007.49;1772821;81;20925;-41
2021/10/10 04:48:06;;;;;;;23.70;14.30;;;;;;;6.10;53.14;101005.84;1766659;79;21020;-40
2021/10/10 04:50:33;;;;;;;23.55;14.43;;;;;;;6.10;52.90;101008.53;1790466;79;20950;-41
2021/10/10 04:52:59;;;;;;;25.20;13.50;;;;;;;6.07;52.79;101006.43;1807611;79;21112;-41
2021/10/10 04:55:26;;;;;;;24.18;13.50;;;;;;;6.05;53.01;101001.86;1789664;79;21531;-41
2021/10/10 04:57:53;;;;;;;21.95;13.20;;;;;;;6.05;52.80;101006.47;1802749;79;21037;-40
2021/10/10 05:00:19;;;;;;;18.05;11.48;;;;;;;6.05;53.02;101006.47;1797675;79;21523;-40
2021/10/10 05:02:46;;;;;;;17.87;11.00;;;;;;;6.05;53.24;101002.44;1773059;81;21632;-41
2021/10/10 05:05:12;;;;;;;17.35;9.70;;;;;;;6.06;53.50;101004.02;1776546;79;21618;-40
2021/10/10 05:07:39;;;;;;;19.37;11.22;;;;;;;6.09;53.42;101007.49;1780296;79;21005;-40
2021/10/10 05:10:08;;;;;;;22.60;12.23;;;;;;;6.12;53.37;101013.64;1773181;79;21467;-41
2021/10/10 05:12:37;;;;;;;22.00;12.13;;;;;;;6.15;53.31;101009.00;1780480;79;20929;-41
2021/10/10 05:15:06;;;;;;;17.80;9.50;;;;;;;6.17;53.36;101016.80;1794377;79;20964;-40
2021/10/10 05:17:33;;;;;;;19.00;11.05;;;;;;;6.19;53.18;101013.29;1776948;79;22263;-40
2021/10/10 05:20:00;;;;;;;18.50;11.08;;;;;;;6.22;53.19;101012.70;1772983;79;21029;-40
2021/10/10 05:22:27;;;;;;;21.45;14.33;;;;;;;6.22;53.31;101017.55;1787814;79;21065;-41
2021/10/10 05:24:55;;;;;;;25.65;14.95;;;;;;;6.23;53.30;101015.66;1787108;79;21499;-41
2021/10/10 05:27:21;;;;;;;26.73;16.12;;;;;;;6.25;53.13;101019.64;1784229;79;21061;-41
2021/10/10 05:29:48;;;;;;;26.12;16.00;;;;;;;6.28;53.05;101021.78;1773242;79;21760;-41
2021/10/10 05:32:15;;;;;;;20.88;12.35;;;;;;;6.32;53.09;101027.37;1772653;81;20961;-41
2021/10/10 05:34:41;;;;;;;21.33;13.03;;;;;;;6.32;53.19;101029.53;1773078;81;21471;-40
2021/10/10 05:37:08;;;;;;;16.12;11.10;;;;;;;6.30;53.42;101030.35;1776595;79;21041;-40
2021/10/10 05:39:35;;;;;;;23.98;11.97;;;;;;;6.31;53.51;101031.96;1782132;79;20977;-40
2021/10/10 05:42:02;;;;;;;19.07;10.55;;;;;;;6.35;53.74;101030.28;1777660;79;21198;-40
2021/10/10 05:44:29;;;;;;;17.10;9.88;;;;;;;6.41;53.75;101032.37;1793527;79;20975;-41
2021/10/10 05:46:56;;;;;;;21.00;10.23;;;;;;;6.47;53.88;101036.60;1778305;79;21564;-41
2021/10/10 05:49:23;;;;;;;15.78;9.60;;;;;;;6.53;53.84;101034.88;1773151;81;21005;-41
2021/10/10 05:51:50;;;;;;;17.92;9.50;;;;;;;6.61;53.74;101031.28;1783214;79;21197;-40
2021/10/10 05:54:18;;;;;;;14.98;9.58;;;;;;;6.69;53.55;101030.06;1804532;79;21134;-41
2021/10/10 05:56:44;;;;;;;15.95;9.75;;;;;;;6.77;53.55;101035.36;1807669;79;21000;-38
2021/10/10 05:59:15;;;;;;;15.72;9.48;;;;;;;6.86;53.04;101036.29;1804641;79;21540;-39
2021/10/10 06:01:41;;;;;;;18.95;10.18;;;;;;;6.93;52.85;101040.20;1798041;78;21578;-41
2021/10/10 06:04:08;;;;;;;17.60;9.83;;;;;;;6.99;52.67;101038.23;1779163;79;21003;-41
2021/10/10 06:06:36;;;;;;;19.45;9.98;;;;;;;7.05;52.34;101047.05;1778236;79;21140;-40
2021/10/10 06:09:05;;;;;;;19.17;9.65;;;;;;;7.11;52.15;101049.38;1782431;79;21008;-40
2021/10/10 06:11:31;;;;;;;19.40;10.48;;;;;;;7.16;51.88;101050.64;1788389;79;21033;-40
2021/10/10 06:13:59;;;;;;;14.75;9.70;;;;;;;7.20;52.18;101051.64;1786240;79;21088;-40
2021/10/10 06:16:28;;;;;;;16.37;10.13;;;;;;;7.28;52.09;101050.95;1781921;78;21032;-40
2021/10/10 06:18:55;;;;;;;16.10;9.83;;;;;;;7.34;51.96;101057.87;1772118;79;21048;-41
2021/10/10 06:21:22;;;;;;;17.32;9.05;;;;;;;7.41;51.89;101047.48;1794529;79;21000;-40
2021/10/10 06:23:49;;;;;;;19.80;10.00;;;;;;;7.47;51.78;101048.20;1789558;79;21004;-40
2021/10/10 06:26:15;;;;;;;16.80;9.05;;;;;;;7.55;51.67;101053.47;1764238;81;21023;-40
2021/10/10 06:28:42;;;;;;;13.58;9.45;;;;;;;7.63;51.61;101056.82;1792450;79;22297;-40
2021/10/10 06:31:08;;;;;;;15.60;9.38;;;;;;;7.74;51.26;101051.49;1772436;81;21103;-41
2021/10/10 06:33:35;;;;;;;16.85;9.18;;;;;;;7.83;50.83;101050.50;1787994;79;20945;-41
2021/10/10 06:36:01;;;;;;;12.58;8.73;;;;;;;7.94;50.35;101050.30;1778139;79;20938;-41
2021/10/10 06:38:27;;;;;;;15.88;9.00;;;;;;;8.01;50.08;101054.19;1773457;81;21518;-41
2021/10/10 06:40:54;;;;;;;17.95;8.75;;;;;;;8.10;50.25;101048.33;1777316;79;21085;-40
2021/10/10 06:43:20;;;;;;;14.80;8.83;;;;;;;8.19;49.83;101052.47;1790042;79;21092;-41
2021/10/10 06:45:47;;;;;;;13.20;8.85;;;;;;;8.28;49.86;101058.20;1773019;81;21539;-40
2021/10/10 06:48:14;;;;;;;17.92;9.05;;;;;;;8.36;49.77;101051.88;1773269;80;21070;-40
2021/10/10 06:50:40;;;;;;;14.60;8.75;;;;;;;8.45;48.85;101054.11;1772888;79;21026;-41
2021/10/10 06:53:07;;;;;;;19.55;9.20;;;;;;;8.53;48.78;101050.68;1774512;79;21083;-40
2021/10/10 06:55:34;;;;;;;16.10;9.13;;;;;;;8.60;48.60;101049.73;1804772;79;21956;-40
2021/10/10 06:58:01;;;;;;;14.35;8.58;;;;;;;8.65;48.33;101049.61;1794815;79;20984;-41
2021/10/10 07:00:28;;;;;;;17.67;9.28;;;;;;;8.72;48.02;101045.92;1776436;79;21057;-41
2021/10/10 07:02:54;;;;;;;14.25;8.63;;;;;;;8.79;47.60;101053.62;1797791;79;21026;-41
2021/10/10 07:05:21;;;;;;;14.85;9.05;;;;;;;8.87;47.70;101048.27;1785860;79;21045;-40
2021/10/10 07:07:47;;;;;;;15.00;8.13;;;;;;;8.97;47.60;101053.98;1793172;80;21755;-40
2021/10/10 07:10:14;;;;;;;15.83;9.03;;;;;;;9.07;47.11;101054.55;1801105;79;20953;-41
2021/10/10 07:12:41;;;;;;;14.50;8.68;;;;;;;9.17;46.29;101054.85;1773894;79;20924;-40
2021/10/10 07:15:12;;;;;;;15.10;7.92;;;;;;;9.26;46.12;101049.48;1772785;81;20964;-41
2021/10/10 07:17:38;;;;;;;15.32;8.78;;;;;;;9.34;46.45;101053.63;1797516;79;21056;-40
2021/10/10 07:20:44;;;;;;;17.55;9.15;;;;;;;9.44;46.36;101049.86;1790825;79;21119;-41
2021/10/10 07:25:08;;;;;;;13.20;8.28;;;;;;;9.66;45.58;101045.73;1768744;81;21625;-40
2021/10/10 07:27:41;;;;;;;14.58;8.73;;;;;;;9.79;45.62;101046.18;1750450;81;21815;-40
2021/10/10 07:30:11;;;;;;;14.00;7.92;;;;;;;9.90;45.16;101048.05;1762718;81;21119;-41
2021/10/10 07:32:38;;;;;;;12.18;8.28;;;;;;;10.01;45.06;101042.60;1742915;81;21171;-41
2021/10/10 07:35:07;;;;;;;13.38;8.58;;;;;;;10.13;44.26;101040.63;1707190;84;21075;-41
2021/10/10 07:37:34;;;;;;;14.00;8.53;;;;;;;10.25;44.82;101034.88;1730396;82;21487;-40
2021/10/10 07:40:02;;;;;;;13.43;7.62;;;;;;;10.40;43.99;101039.05;1738226;82;21090;-41
2021/10/10 07:42:30;;;;;;;11.73;7.33;;;;;;;10.55;43.07;101041.30;1750207;81;21070;-40
2021/10/10 07:45:06;;;;;;;11.65;6.85;;;;;;;10.71;42.60;101035.62;1743048;82;21036;-40
2021/10/10 07:49:52;;;;;;;11.97;7.12;;;;;;;11.02;41.72;101041.44;1787405;79;20933;-40
2021/10/10 07:52:19;;;;;;;12.73;7.40;;;;;;;11.16;41.94;101034.72;1804962;79;21327;-40
2021/10/10 07:54:46;;;;;;;12.23;7.42;;;;;;;11.35;41.24;101034.35;1796069;79;21021;-41
2021/10/10 07:57:13;;;;;;;13.90;6.83;;;;;;;11.52;40.37;101035.64;1802337;79;21140;-41
2021/10/10 07:59:40;;;;;;;16.50;7.40;;;;;;;11.70;40.26;101035.84;1775219;79;21580;-41
2021/10/10 08:02:07;;;;;;;13.03;7.62;;;;;;;11.86;39.71;101030.66;1772770;80;21117;-41
2021/10/10 08:04:34;;;;;;;11.90;6.42;;;;;;;12.00;39.23;101037.25;1786660;79;21551;-40
2021/10/10 08:07:03;;;;;;;12.25;7.87;;;;;;;12.13;38.97;101034.30;1804428;79;21064;-41
2021/10/10 08:09:30;;;;;;;11.50;7.72;;;;;;;12.24;38.25;101027.92;1773871;79;22049;-41
2021/10/10 08:11:56;;;;;;;15.32;7.40;;;;;;;12.34;37.55;101028.89;1784217;79;21018;-41
2021/10/10 08:14:23;;;;;;;16.27;7.42;;;;;;;12.42;37.29;101029.39;1772990;81;21036;-41
2021/10/10 08:16:50;;;;;;;12.40;8.10;;;;;;;12.48;37.00;101031.35;1783422;79;20934;-41
2021/10/10 08:19:17;;;;;;;13.72;8.95;;;;;;;12.54;36.88;101034.88;1804651;79;21511;-41
2021/10/10 08:21:44;;;;;;;12.55;8.48;;;;;;;12.60;36.71;101034.92;1804503;79;21095;-41
2021/10/10 08:24:11;;;;;;;13.93;9.13;;;;;;;12.66;36.92;101034.16;1804487;79;20996;-40
2021/10/10 08:26:38;;;;;;;13.25;8.85;;;;;;;12.74;36.83;101027.05;1803830;79;20985;-41
2021/10/10 08:29:06;;;;;;;15.23;9.45;;;;;;;12.80;37.12;101028.45;1804612;79;20997;-41
2021/10/10 08:31:33;;;;;;;16.23;8.85;;;;;;;12.85;37.26;101026.87;1801127;79;21072;-41
2021/10/10 08:33:59;;;;;;;15.43;8.90;;;;;;;12.91;36.67;101025.55;1772871;81;21102;-41
2021/10/10 08:36:26;;;;;;;10.60;7.67;;;;;;;12.97;36.09;101029.66;1773156;80;20955;-41
2021/10/10 08:38:52;;;;;;;12.90;7.78;;;;;;;13.04;35.55;101023.09;1794090;79;20993;-42
2021/10/10 08:41:23;;;;;;;11.45;7.53;;;;;;;13.13;35.20;101030.64;1804905;79;21025;-41
2021/10/10 08:43:50;;;;;;;13.35;8.28;;;;;;;13.20;35.29;101028.19;1797116;79;20986;-41
2021/10/10 08:46:23;;;;;;;11.78;8.13;;;;;;;13.30;34.58;101028.32;1793135;80;21764;-41
2021/10/10 08:48:47;;;;;;;10.58;7.75;;;;;;;13.37;34.74;101023.90;1792595;80;21073;-41
2021/10/10 08:51:13;;;;;;;13.68;8.65;;;;;;;13.46;34.90;101023.23;1728185;83;21018;-41
2021/10/10 08:53:40;;;;;;;10.72;7.20;;;;;;;13.56;34.81;101022.56;1744192;80;21504;-41
2021/10/10 08:56:06;;;;;;;12.68;7.10;;;;;;;13.65;34.18;101023.28;1738261;82;21051;-42
2021/10/10 08:58:37;;;;;;;12.18;7.65;;;;;;;13.79;33.56;101019.66;1707418;84;21165;-41
2021/10/10 09:01:04;;;;;;;11.50;7.37;;;;;;;13.92;33.60;101026.69;1733746;82;20946;-41
2021/10/10 09:03:30;;;;;;;14.03;7.55;;;;;;;14.05;33.28;101026.90;1764493;81;20998;-41
2021/10/10 09:05:57;;;;;;;11.10;7.17;;;;;;;14.20;33.12;101019.39;1748807;81;20931;-41
2021/10/10 09:08:24;;;;;;;9.33;7.08;;;;;;;14.35;32.92;101024.14;1738303;82;21006;-41
2021/10/10 09:10:59;;;;;;;11.05;6.85;;;;;;;14.52;32.04;101019.03;1740177;81;21139;-41
2021/10/10 09:13:41;;;;;;;9.80;6.53;;;;;;;14.64;31.94;101015.45;1707002;84;21010;-41
2021/10/10 09:16:09;;;;;;;12.28;7.42;;;;;;;14.78;32.01;101021.31;1737372;81;20958;-42
2021/10/10 09:18:43;;;;;;;11.68;7.10;;;;;;;14.93;31.32;101015.11;1768543;81;21531;-41
2021/10/10 09:21:27;;;;;;;10.98;6.83;;;;;;;15.05;31.37;101012.34;1768648;81;21005;-41
2021/10/10 09:23:56;;;;;;;11.68;7.00;;;;;;;15.18;31.32;101007.03;1739296;80;21975;-41
2021/10/10 09:26:23;;;;;;;18.35;7.20;;;;;;;15.32;31.08;101005.80;1738413;82;21005;-42
2021/10/10 09:28:50;;;;;;;15.35;7.72;;;;;;;15.46;30.75;101004.80;1738090;81;21398;-42
2021/10/10 09:31:17;;;;;;;11.22;6.62;;;;;;;15.55;30.56;101008.98;1707009;84;20966;-41
2021/10/10 09:33:48;;;;;;;12.18;6.12;;;;;;;15.64;30.36;101008.79;1774754;79;21035;-41
2021/10/10 09:36:21;;;;;;;10.78;5.62;;;;;;;15.71;30.26;101003.51;1781523;79;21093;-41
2021/10/10 09:39:14;;;;;;;13.38;7.40;;;;;;;15.79;29.63;101001.73;1728861;82;21045;-41
2021/10/10 09:41:31;;;;;;;15.30;8.65;;;;;;;15.90;29.45;101000.84;1724908;82;21554;-42
2021/10/10 09:44:36;;;;;;;12.25;6.87;;;;;;;16.02;28.99;101003.45;1740415;82;21552;-41
2021/10/10 09:46:45;;;;;;;12.23;6.35;;;;;;;16.14;28.71;101003.13;1717133;82;21100;-42
2021/10/10 09:49:29;;;;;;;9.13;5.97;;;;;;;16.24;28.65;101006.11;1732916;82;21145;-42
2021/10/10 09:52:12;;;;;;;7.28;4.75;;;;;;;16.37;28.15;101008.14;1748219;81;20941;-42
2021/10/10 09:54:53;;;;;;;13.40;5.90;;;;;;;16.44;27.60;101008.30;1803478;79;21013;-41
2021/10/10 09:57:21;;;;;;;10.08;4.75;;;;;;;16.50;27.58;101009.05;1804853;79;20986;-42
2021/10/10 09:59:48;;;;;;;10.20;5.85;;;;;;;16.59;27.42;101000.64;1803991;79;20989;-42
2021/10/10 10:02:15;;;;;;;11.83;5.25;;;;;;;16.68;27.54;101012.75;1781596;79;21162;-41
2021/10/10 10:04:50;;;;;;;10.55;5.37;;;;;;;16.79;27.49;101011.81;1782459;79;20959;-42
2021/10/10 10:07:21;;;;;;;12.37;5.75;;;;;;;16.90;27.35;101005.95;1780507;80;21560;-41
2021/10/10 10:09:52;;;;;;;8.98;6.00;;;;;;;16.99;27.10;101001.64;1772033;81;21024;-41
2021/10/10 10:12:22;;;;;;;14.83;5.50;;;;;;;17.04;27.19;101000.55;1775597;79;21077;-42
2021/10/10 10:17:57;;;;;;;11.03;4.67;;;;;;;17.24;27.09;100996.59;1819950;76;22737;-42
2021/10/10 10:20:25;;;;;;;8.98;5.08;;;;;;;17.29;26.66;100989.44;1805863;77;21669;-42
2021/10/10 10:22:57;;;;;;;12.40;5.40;;;;;;;17.38;26.17;100988.62;1815127;77;21103;-42
2021/10/10 10:25:25;;;;;;;9.20;5.10;;;;;;;17.43;25.99;100982.06;1815374;77;20991;-39
2021/10/10 10:27:53;;;;;;;8.40;4.83;;;;;;;17.52;25.93;100985.34;1807005;77;20952;-41
2021/10/10 10:30:21;;;;;;;8.20;4.80;;;;;;;17.59;25.86;100976.67;1801933;79;21036;-41
2021/10/10 10:32:49;;;;;;;6.45;3.87;;;;;;;17.73;25.64;100979.64;1806468;78;21192;-41
2021/10/10 10:35:18;;;;;;;7.20;4.08;;;;;;;17.88;25.34;100982.02;1809545;77;21966;-41
2021/10/10 10:37:49;;;;;;;6.72;3.33;;;;;;;18.04;25.34;100976.38;1813765;77;20960;-43
2021/10/10 10:40:27;;;;;;;5.53;4.22;;;;;;;18.18;24.37;100977.38;1816076;78;20953;-42
2021/10/10 10:42:57;;;;;;;10.48;4.70;;;;;;;18.30;23.96;100972.22;1828949;78;20975;-42
2021/10/10 10:45:41;;;;;;;7.80;4.27;;;;;;;18.43;24.24;100967.30;1826503;77;21652;-43
2021/10/10 10:48:29;;;;;;;7.03;4.55;;;;;;;18.43;24.24;100967.30;1850816;77;21339;-42
2021/10/10 10:51:28;;;;;;;7.95;4.72;;;;;;;18.52;23.96;100964.48;1804718;77;21542;-42
2021/10/10 10:53:54;;;;;;;8.15;4.83;;;;;;;18.64;23.96;100961.50;1802928;78;20925;-43
2021/10/10 10:56:31;;;;;;;8.48;4.60;;;;;;;18.73;23.66;100959.06;1794292;78;20971;-43
2021/10/10 10:58:58;;;;;;;6.30;3.77;;;;;;;18.82;23.84;100959.55;1806837;79;21868;-43
2021/10/10 11:01:27;;;;;;;9.78;4.55;;;;;;;18.98;23.71;100962.84;1814273;79;21116;-43
2021/10/10 11:04:24;;;;;;;9.90;4.70;;;;;;;19.12;23.07;100961.64;1817214;79;21000;-43
2021/10/10 11:06:57;;;;;;;7.00;4.87;;;;;;;19.19;23.34;100958.94;1817126;79;21000;-43
2021/10/10 11:09:25;;;;;;;10.13;5.22;;;;;;;19.23;23.32;100958.38;1817412;79;20961;-42
2021/10/10 11:11:56;;;;;;;;;;;;;;;19.28;23.49;100958.04;1811101;78;20949;-43
2021/10/10 11:14:28;;;;;;;15.60;6.23;;;;;;;19.34;23.65;100951.61;1799746;79;21130;-43
2021/10/10 11:17:05;;;;;;;11.10;5.92;;;;;;;19.29;23.82;100956.88;1813496;78;20933;-43
2021/10/10 11:19:32;;;;;;;9.78;5.25;;;;;;;19.36;23.63;100956.95;1832173;78;20924;-43
2021/10/10 11:21:59;;;;;;;11.97;5.10;;;;;;;19.46;23.16;100948.00;1828733;78;21518;-43
2021/10/10 11:24:26;;;;;;;8.38;5.25;;;;;;;19.56;23.43;100949.87;1817796;78;20953;-43
2021/10/10 11:26:52;;;;;;;10.40;5.33;;;;;;;19.72;23.43;100949.78;1803652;78;21128;-44
2021/10/10 11:29:26;;;;;;;10.50;4.92;;;;;;;19.86;22.93;100953.20;1831287;78;21474;-42
2021/10/10 11:31:49;;;;;;;10.15;5.65;;;;;;;19.96;22.81;100944.23;1830364;78;20933;-43
2021/10/10 11:34:19;;;;;;;9.68;5.55;;;;;;;20.05;22.63;100952.14;1831886;78;21076;-43
2021/10/10 11:36:55;;;;;;;13.60;6.17;;;;;;;20.05;22.59;100953.52;1831600;78;20981;-43